WXM80 ListenWXM80 Stop

You find our weather info also at:

UK Metoffice

WeatherCloud

Weather Underground

Northeastern Weather Network

AWEKAS

Citizen Weather Observer Program (CWOP)

HAMweather, WeatherForYou, PWS Weather


Weather Underground History page Text

Daily Summary for November 18, 2016 Units:  English    Metric   Both
« Previous Day
Next Day »
Daily Weekly Monthly Yearly Custom
  High: Low: Average:
Temperature: 62.9 °F 44.2 °F 52.2 °F
Dew Point: 44.5 °F 39.7 °F 42.4 °F
Humidity: 85 % 44 % 71 %
Wind Speed: 6.9 mph 0.0 mph 2.1 mph
Wind Gust: 10.4 mph - -
Wind:- - WSW
Pressure: 30.10 in 29.99 in -
Precipitation: 0.00 in    
Historical Graphs
 
 
Tabular Data for November 18, 2016
Time Temperature Dew Point Pressure Wind Wind Speed Wind Gust Humidity Rainfall Rate (Hourly)
00:04 49.5 °F 42.2 °F 30.04 in North 5.2 mph 8.1 mph 76 % 0.00 in
00:09 49.4 °F 42.5 °F 30.05 in North 4.5 mph 10.4 mph 77 % 0.00 in
00:14 49.4 °F 42.5 °F 30.05 in NNE 1.1 mph 5.0 mph 77 % 0.00 in
00:19 49.3 °F 42.4 °F 30.04 in NNE 3.9 mph 8.1 mph 77 % 0.00 in
00:24 49.2 °F 42.6 °F 30.05 in North 3.6 mph 10.0 mph 78 % 0.00 in
00:29 49.2 °F 42.6 °F 30.05 in NE 3.0 mph 5.8 mph 78 % 0.00 in
00:34 49.0 °F 42.1 °F 30.05 in NNE 2.6 mph 4.6 mph 77 % 0.00 in
00:39 49.0 °F 42.4 °F 30.05 in NW 2.0 mph 4.0 mph 78 % 0.00 in
00:44 48.9 °F 42.3 °F 30.05 in North 2.9 mph 6.0 mph 78 % 0.00 in
00:50 48.8 °F 42.2 °F 30.05 in NNE 1.7 mph 5.8 mph 78 % 0.00 in
00:55 48.8 °F 42.6 °F 30.04 in NNW 3.6 mph 8.1 mph 79 % 0.00 in
01:00 48.7 °F 42.5 °F 30.05 in NNE 3.8 mph 6.0 mph 79 % 0.00 in
01:05 48.7 °F 42.5 °F 30.06 in North 0.5 mph 3.5 mph 79 % 0.00 in
01:10 48.6 °F 42.4 °F 30.05 in North 2.7 mph 3.5 mph 79 % 0.00 in
01:15 48.6 °F 42.4 °F 30.06 in North 5.0 mph 8.0 mph 79 % 0.00 in
01:20 48.6 °F 42.4 °F 30.06 in North 1.0 mph 7.0 mph 79 % 0.00 in
01:25 48.6 °F 42.7 °F 30.06 in NW 1.6 mph 3.5 mph 80 % 0.00 in
01:30 48.5 °F 42.3 °F 30.06 in North 2.0 mph 7.0 mph 79 % 0.00 in
01:35 48.5 °F 42.6 °F 30.06 in North 2.0 mph 9.0 mph 80 % 0.00 in
01:40 48.4 °F 42.5 °F 30.06 in North 2.2 mph 6.9 mph 80 % 0.00 in
01:45 48.3 °F 42.4 °F 30.06 in North 5.0 mph 9.0 mph 80 % 0.00 in
01:50 48.3 °F 42.4 °F 30.06 in North 5.0 mph 7.0 mph 80 % 0.00 in
01:55 48.3 °F 42.4 °F 30.06 in NNW 3.0 mph 8.0 mph 80 % 0.00 in
02:00 48.2 °F 42.3 °F 30.06 in North 1.1 mph 4.6 mph 80 % 0.00 in
02:05 48.2 °F 42.3 °F 30.06 in North 3.2 mph 5.8 mph 80 % 0.00 in
02:10 48.1 °F 42.2 °F 30.06 in North 2.2 mph 4.6 mph 80 % 0.00 in
02:15 48.1 °F 42.2 °F 30.06 in North 5.6 mph 6.9 mph 80 % 0.00 in
02:20 48.1 °F 42.2 °F 30.06 in North 3.5 mph 6.0 mph 80 % 0.00 in
02:25 48.1 °F 42.2 °F 30.06 in NNW 4.1 mph 6.9 mph 80 % 0.00 in
02:30 48.1 °F 42.2 °F 30.06 in North 5.0 mph 6.9 mph 80 % 0.00 in
02:36 48.1 °F 42.5 °F 30.06 in NW 1.5 mph 4.0 mph 81 % 0.00 in
02:41 48.0 °F 42.4 °F 30.06 in North 1.6 mph 2.3 mph 81 % 0.00 in
02:46 48.0 °F 42.1 °F 30.06 in North 4.9 mph 9.0 mph 80 % 0.00 in
02:51 47.9 °F 42.0 °F 30.07 in North 4.5 mph 6.9 mph 80 % 0.00 in
02:56 47.9 °F 42.0 °F 30.07 in NNE 4.2 mph 5.8 mph 80 % 0.00 in
03:01 47.9 °F 42.0 °F 30.07 in North 2.4 mph 6.9 mph 80 % 0.00 in
03:06 47.9 °F 42.3 °F 30.06 in NNE 3.8 mph 5.8 mph 81 % 0.00 in
03:16 47.8 °F 42.3 °F 30.06 in North 4.8 mph 6.9 mph 81 % 0.00 in
03:22 47.8 °F 42.3 °F 30.06 in North 2.6 mph 4.6 mph 81 % 0.00 in
03:27 47.9 °F 42.3 °F 30.06 in NNE 4.7 mph 9.0 mph 81 % 0.00 in
03:32 47.8 °F 42.3 °F 30.07 in North 4.4 mph 5.8 mph 81 % 0.00 in
03:37 47.9 °F 42.3 °F 30.07 in North 2.7 mph 8.1 mph 81 % 0.00 in
03:42 47.9 °F 42.3 °F 30.07 in NNW 5.8 mph 5.8 mph 81 % 0.00 in
03:47 47.9 °F 42.3 °F 30.07 in NNE 4.7 mph 6.9 mph 81 % 0.00 in
03:52 47.8 °F 42.3 °F 30.07 in NNW 3.8 mph 6.9 mph 81 % 0.00 in
03:57 47.8 °F 42.3 °F 30.08 in NNW 2.8 mph 6.9 mph 81 % 0.00 in
04:02 47.7 °F 42.2 °F 30.08 in North 5.7 mph 8.1 mph 81 % 0.00 in
04:07 47.7 °F 41.8 °F 30.08 in NNW 5.3 mph 8.1 mph 80 % 0.00 in
04:13 47.7 °F 42.2 °F 30.08 in NE 6.9 mph 10.4 mph 81 % 0.00 in
04:18 47.7 °F 42.2 °F 30.08 in North 5.5 mph 8.1 mph 81 % 0.00 in
04:23 47.6 °F 42.4 °F 30.08 in North 1.1 mph 4.6 mph 82 % 0.00 in
04:28 47.6 °F 42.4 °F 30.08 in NNW 4.1 mph 6.9 mph 82 % 0.00 in
04:33 47.6 °F 42.4 °F 30.08 in North 1.9 mph 4.0 mph 82 % 0.00 in
04:38 47.5 °F 42.0 °F 30.08 in North 2.5 mph 4.6 mph 81 % 0.00 in
04:43 47.4 °F 41.9 °F 30.09 in NNW 3.3 mph 6.9 mph 81 % 0.00 in
04:48 47.4 °F 41.9 °F 30.08 in NNE 3.4 mph 5.0 mph 81 % 0.00 in
04:53 47.4 °F 41.9 °F 30.09 in NW 3.1 mph 4.6 mph 81 % 0.00 in
04:58 47.3 °F 41.8 °F 30.08 in NNE 2.0 mph 4.6 mph 81 % 0.00 in
05:04 47.2 °F 41.7 °F 30.08 in NNE 1.1 mph 4.6 mph 81 % 0.00 in
05:09 47.1 °F 41.9 °F 30.08 in NNW 0.6 mph 3.5 mph 82 % 0.00 in
05:14 46.9 °F 41.7 °F 30.08 in North 2.6 mph 4.6 mph 82 % 0.00 in
05:19 46.9 °F 41.7 °F 30.09 in North 1.0 mph 3.5 mph 82 % 0.00 in
05:24 46.8 °F 41.6 °F 30.08 in North 0.3 mph 1.2 mph 82 % 0.00 in
05:29 46.7 °F 41.5 °F 30.09 in Calm   2.3 mph 82 % 0.00 in
05:34 46.6 °F 41.4 °F 30.09 in Calm   2.3 mph 82 % 0.00 in
05:39 46.5 °F 41.6 °F 30.09 in NNW 2.2 mph 3.5 mph 83 % 0.00 in
05:44 46.4 °F 41.5 °F 30.09 in North 2.5 mph 5.8 mph 83 % 0.00 in
05:49 46.3 °F 41.4 °F 30.09 in North 1.8 mph 3.5 mph 83 % 0.00 in
05:55 46.2 °F 41.3 °F 30.09 in North 1.4 mph 3.5 mph 83 % 0.00 in
06:00 46.2 °F 41.3 °F 30.09 in NNW 3.2 mph 7.0 mph 83 % 0.00 in
06:05 46.1 °F 41.2 °F 30.09 in NNE 2.9 mph 6.9 mph 83 % 0.00 in
06:10 46.1 °F 41.2 °F 30.09 in North 1.2 mph 3.5 mph 83 % 0.00 in
06:15 46.0 °F 41.1 °F 30.09 in NW 1.0 mph 3.5 mph 83 % 0.00 in
06:20 46.1 °F 41.2 °F 30.09 in NW 1.0 mph 2.0 mph 83 % 0.00 in
06:25 46.1 °F 41.5 °F 30.09 in NNW 1.0 mph 4.0 mph 84 % 0.00 in
06:30 46.0 °F 41.4 °F 30.09 in NNW 1.0 mph 4.0 mph 84 % 0.00 in
06:35 46.0 °F 41.4 °F 30.09 in NW 1.0 mph 7.0 mph 84 % 0.00 in
06:40 46.0 °F 41.4 °F 30.09 in Calm   5.0 mph 84 % 0.00 in
06:45 46.0 °F 41.4 °F 30.09 in NW 1.0 mph 4.0 mph 84 % 0.00 in
06:50 46.0 °F 41.4 °F 30.09 in NW 2.0 mph 8.0 mph 84 % 0.00 in
06:55 46.0 °F 41.4 °F 30.09 in NW 1.0 mph 6.0 mph 84 % 0.00 in
07:00 46.0 °F 41.4 °F 30.09 in WNW 2.9 mph 5.8 mph 84 % 0.00 in
07:05 46.0 °F 41.4 °F 30.09 in West 2.8 mph 6.9 mph 84 % 0.00 in
07:10 46.1 °F 41.5 °F 30.09 in Calm   1.2 mph 84 % 0.00 in
07:15 46.1 °F 41.8 °F 30.10 in WNW 1.7 mph 5.8 mph 85 % 0.00 in
07:20 46.2 °F 41.9 °F 30.10 in West 3.6 mph 6.9 mph 85 % 0.00 in
07:26 46.3 °F 42.0 °F 30.10 in WNW 1.7 mph 6.0 mph 85 % 0.00 in
07:31 46.4 °F 42.1 °F 30.10 in WNW 4.1 mph 4.6 mph 85 % 0.00 in
07:36 46.4 °F 42.1 °F 30.10 in WNW 2.1 mph 5.8 mph 85 % 0.00 in
07:41 46.5 °F 42.2 °F 30.10 in WNW 1.3 mph 3.5 mph 85 % 0.00 in
07:51 46.6 °F 42.3 °F 30.10 in WNW 3.2 mph 5.8 mph 85 % 0.00 in
07:56 46.7 °F 42.1 °F 30.10 in NW 3.8 mph 6.0 mph 84 % 0.00 in
08:01 46.8 °F 42.2 °F 30.10 in NW 1.6 mph 2.3 mph 84 % 0.00 in
08:06 46.9 °F 42.3 °F 30.10 in NNW 1.1 mph 3.5 mph 84 % 0.00 in
08:11 47.0 °F 42.4 °F 30.10 in NNW 1.8 mph 5.0 mph 84 % 0.00 in
08:17 47.1 °F 42.5 °F 30.10 in WNW 3.2 mph 6.0 mph 84 % 0.00 in
08:22 47.2 °F 42.3 °F 30.10 in WSW 1.6 mph 4.0 mph 83 % 0.00 in
08:27 47.4 °F 42.5 °F 30.09 in NW 1.4 mph 4.6 mph 83 % 0.00 in
08:32 47.6 °F 42.7 °F 30.10 in NW 5.0 mph 7.0 mph 83 % 0.00 in
08:37 47.8 °F 42.6 °F 30.09 in NW 2.1 mph 4.6 mph 82 % 0.00 in
08:42 48.1 °F 42.5 °F 30.09 in WNW 3.8 mph 7.0 mph 81 % 0.00 in
08:47 48.4 °F 42.8 °F 30.10 in WNW 3.4 mph 5.0 mph 81 % 0.00 in
08:52 48.7 °F 42.8 °F 30.10 in West 1.9 mph 3.5 mph 80 % 0.00 in
08:57 49.2 °F 43.6 °F 30.10 in NW 1.9 mph 3.5 mph 81 % 0.00 in
09:02 49.7 °F 43.5 °F 30.10 in West 1.7 mph 3.5 mph 79 % 0.00 in
09:08 50.3 °F 44.0 °F 30.10 in NW 1.7 mph 6.0 mph 79 % 0.00 in
09:13 50.6 °F 43.7 °F 30.10 in North 1.5 mph 5.0 mph 77 % 0.00 in
09:18 51.1 °F 43.8 °F 30.09 in NW 1.4 mph 3.5 mph 76 % 0.00 in
09:23 51.4 °F 43.7 °F 30.09 in NW 2.6 mph 2.6 mph 75 % 0.00 in
09:28 51.8 °F 44.5 °F 30.09 in North 1.3 mph 4.6 mph 76 % 0.00 in
09:33 52.1 °F 44.1 °F 30.09 in NW 1.6 mph 4.0 mph 74 % 0.00 in
09:38 52.4 °F 44.0 °F 30.09 in West 4.4 mph 6.0 mph 73 % 0.00 in
09:43 52.8 °F 44.0 °F 30.09 in NNW 1.6 mph 4.6 mph 72 % 0.00 in
09:48 53.0 °F 44.2 °F 30.09 in West 3.6 mph 5.8 mph 72 % 0.00 in
09:54 53.2 °F 44.4 °F 30.09 in WNW 0.8 mph 3.5 mph 72 % 0.00 in
09:59 53.4 °F 43.9 °F 30.09 in WSW 3.3 mph 5.8 mph 70 % 0.00 in
10:04 53.6 °F 44.4 °F 30.09 in WNW 0.6 mph 2.3 mph 71 % 0.00 in
10:09 53.8 °F 43.9 °F 30.09 in WNW 2.1 mph 6.9 mph 69 % 0.00 in
10:14 53.9 °F 43.2 °F 30.09 in WNW 3.4 mph 4.6 mph 67 % 0.00 in
10:19 54.0 °F 43.7 °F 30.09 in West 1.5 mph 3.5 mph 68 % 0.00 in
10:24 54.1 °F 43.8 °F 30.08 in WNW 4.2 mph 6.9 mph 68 % 0.00 in
10:29 54.1 °F 43.8 °F 30.08 in WNW 1.3 mph 4.6 mph 68 % 0.00 in
10:34 54.2 °F 43.9 °F 30.08 in West 3.2 mph 6.9 mph 68 % 0.00 in
10:39 54.4 °F 44.1 °F 30.08 in West 3.3 mph 4.6 mph 68 % 0.00 in
10:45 54.3 °F 44.0 °F 30.08 in West 1.5 mph 3.5 mph 68 % 0.00 in
10:50 54.2 °F 43.9 °F 30.08 in WNW 3.0 mph 5.0 mph 68 % 0.00 in
10:55 54.1 °F 43.8 °F 30.08 in NW 4.2 mph 8.0 mph 68 % 0.00 in
11:00 54.0 °F 44.1 °F 30.07 in NW 1.3 mph 3.5 mph 69 % 0.00 in
11:05 54.0 °F 43.7 °F 30.07 in West 2.9 mph 4.6 mph 68 % 0.00 in
11:10 54.0 °F 43.7 °F 30.07 in WNW 1.0 mph 4.0 mph 68 % 0.00 in
11:15 54.0 °F 42.9 °F 30.07 in WSW 3.1 mph 6.0 mph 66 % 0.00 in
11:20 54.1 °F 43.4 °F 30.07 in WNW 0.6 mph 5.0 mph 67 % 0.00 in
11:25 54.1 °F 43.0 °F 30.06 in WNW 2.0 mph 7.0 mph 66 % 0.00 in
11:30 54.3 °F 43.5 °F 30.06 in Calm   5.0 mph 67 % 0.00 in
11:35 54.4 °F 43.3 °F 30.06 in Calm   3.0 mph 66 % 0.00 in
11:40 54.6 °F 43.5 °F 30.06 in West 2.0 mph 5.0 mph 66 % 0.00 in
11:45 54.8 °F 43.7 °F 30.05 in West 1.0 mph 4.0 mph 66 % 0.00 in
11:50 55.1 °F 43.5 °F 30.05 in WSW 1.9 mph 4.0 mph 65 % 0.00 in
11:55 55.4 °F 43.8 °F 30.04 in WNW 1.3 mph 4.0 mph 65 % 0.00 in
12:00 55.7 °F 43.3 °F 30.04 in West 2.5 mph 3.5 mph 63 % 0.00 in
12:05 55.9 °F 43.5 °F 30.04 in WNW 2.6 mph 4.6 mph 63 % 0.00 in
12:10 56.2 °F 43.8 °F 30.04 in WSW 2.2 mph 3.5 mph 63 % 0.01 in
12:15 56.4 °F 43.5 °F 30.03 in West 1.3 mph 3.5 mph 62 % 0.01 in
12:20 56.7 °F 44.2 °F 30.03 in SW 2.7 mph 5.0 mph 63 % 0.01 in
12:25 57.0 °F 44.1 °F 30.03 in West 2.8 mph 3.5 mph 62 % 0.01 in
12:36 57.5 °F 43.7 °F 30.03 in WSW 3.5 mph 6.0 mph 60 % 0.01 in
12:41 57.7 °F 43.9 °F 30.03 in WSW 4.7 mph 7.0 mph 60 % 0.01 in
12:46 57.8 °F 44.0 °F 30.02 in WSW 2.6 mph 3.5 mph 60 % 0.01 in
12:51 58.0 °F 43.7 °F 30.02 in WSW 5.6 mph 7.0 mph 59 % 0.01 in
12:56 58.2 °F 43.9 °F 30.02 in West 4.3 mph 5.8 mph 59 % 0.01 in
13:01 58.4 °F 44.1 °F 30.02 in WNW 3.7 mph 5.8 mph 59 % 0.01 in
13:06 58.7 °F 43.5 °F 30.02 in SW 5.0 mph 6.9 mph 57 % 0.01 in
13:11 59.2 °F 44.4 °F 30.02 in WSW 3.6 mph 6.9 mph 58 % 0.00 in
13:16 59.6 °F 43.4 °F 30.01 in WSW 5.0 mph 6.9 mph 55 % 0.00 in
13:21 60.1 °F 43.4 °F 30.01 in WSW 6.2 mph 8.1 mph 54 % 0.00 in
13:26 60.5 °F 43.8 °F 30.01 in WSW 1.9 mph 3.5 mph 54 % 0.00 in
13:31 60.9 °F 44.1 °F 30.01 in WSW 0.8 mph 2.3 mph 54 % 0.00 in
13:37 61.2 °F 43.9 °F 30.01 in West 0.9 mph 2.3 mph 53 % 0.00 in
13:42 61.6 °F 44.3 °F 30.01 in WNW 2.2 mph 3.5 mph 53 % 0.00 in
13:47 61.9 °F 44.1 °F 30.00 in WNW 2.3 mph 5.8 mph 52 % 0.00 in
13:52 62.2 °F 43.3 °F 30.00 in West 1.3 mph 3.5 mph 50 % 0.00 in
13:57 62.5 °F 43.6 °F 30.00 in West 1.7 mph 5.8 mph 50 % 0.00 in
14:02 62.7 °F 43.8 °F 30.00 in West 0.2 mph 1.2 mph 50 % 0.00 in
14:07 62.8 °F 42.8 °F 30.00 in SW 3.8 mph 6.9 mph 48 % 0.00 in
14:13 62.9 °F 42.4 °F 30.00 in WSW 3.3 mph 4.6 mph 47 % 0.00 in
14:18 62.9 °F 42.4 °F 30.00 in West 3.6 mph 4.6 mph 47 % 0.00 in
14:23 62.9 °F 42.4 °F 30.00 in West 3.8 mph 6.9 mph 47 % 0.00 in
14:28 62.9 °F 41.8 °F 30.00 in SW 2.6 mph 4.6 mph 46 % 0.00 in
14:33 62.8 °F 41.7 °F 30.00 in WNW 2.4 mph 6.9 mph 46 % 0.00 in
14:38 62.9 °F 41.8 °F 30.00 in SSW 3.1 mph 6.9 mph 46 % 0.00 in
14:43 62.9 °F 41.8 °F 30.00 in WNW 2.0 mph 3.5 mph 46 % 0.00 in
14:48 62.9 °F 41.8 °F 30.00 in WSW 2.6 mph 3.5 mph 46 % 0.00 in
14:53 62.9 °F 41.2 °F 30.00 in WNW 1.0 mph 2.3 mph 45 % 0.00 in
14:58 62.9 °F 41.8 °F 30.00 in SW 2.3 mph 5.0 mph 46 % 0.00 in
15:04 62.9 °F 41.2 °F 30.00 in West 3.0 mph 5.8 mph 45 % 0.00 in
15:09 62.9 °F 41.2 °F 30.00 in WSW 1.7 mph 4.0 mph 45 % 0.00 in
15:14 62.9 °F 41.8 °F 30.00 in WSW 2.2 mph 4.6 mph 46 % 0.00 in
15:19 62.9 °F 41.8 °F 30.00 in West 0.5 mph 3.0 mph 46 % 0.00 in
15:24 62.9 °F 41.2 °F 29.99 in West 1.6 mph 3.0 mph 45 % 0.00 in
15:29 62.9 °F 40.6 °F 30.00 in West 2.4 mph 4.0 mph 44 % 0.00 in
15:34 62.9 °F 41.2 °F 30.00 in WSW 2.1 mph 4.6 mph 45 % 0.00 in
15:39 62.9 °F 41.8 °F 29.99 in WSW 1.5 mph 3.0 mph 46 % 0.00 in
15:44 62.8 °F 42.8 °F 29.99 in SW 1.6 mph 3.5 mph 48 % 0.00 in
15:49 62.6 °F 43.2 °F 30.00 in WSW 3.0 mph 5.8 mph 49 % 0.00 in
15:55 62.4 °F 43.0 °F 30.00 in WSW 3.8 mph 5.8 mph 49 % 0.00 in
16:00 62.2 °F 43.3 °F 30.00 in WSW 2.7 mph 4.6 mph 50 % 0.00 in
16:05 62.0 °F 43.7 °F 30.00 in WSW 4.7 mph 6.0 mph 51 % 0.00 in
16:10 61.8 °F 43.5 °F 29.99 in WSW 3.0 mph 4.0 mph 51 % 0.00 in
16:15 61.6 °F 43.3 °F 30.00 in SW 3.4 mph 5.8 mph 51 % 0.00 in
16:20 61.4 °F 43.1 °F 30.00 in WSW 2.7 mph 4.6 mph 51 % 0.00 in
16:25 61.2 °F 43.4 °F 29.99 in WSW 2.8 mph 4.6 mph 52 % 0.00 in
16:30 61.0 °F 43.7 °F 30.00 in WSW 2.0 mph 5.0 mph 53 % 0.00 in
16:35 60.7 °F 43.5 °F 30.00 in WSW 2.0 mph 6.0 mph 53 % 0.00 in
16:40 60.5 °F 43.8 °F 30.00 in WSW 2.0 mph 5.0 mph 54 % 0.00 in
16:45 60.3 °F 44.1 °F 30.00 in WSW 3.0 mph 6.0 mph 55 % 0.00 in
16:50 60.0 °F 43.8 °F 30.00 in WSW 3.0 mph 6.0 mph 55 % 0.00 in
16:55 59.7 °F 44.0 °F 30.00 in WSW 5.0 mph 8.0 mph 56 % 0.00 in
17:00 59.4 °F 43.7 °F 30.00 in WSW 1.7 mph 3.5 mph 56 % 0.00 in
17:05 59.2 °F 43.5 °F 30.00 in SW 2.7 mph 4.6 mph 56 % 0.00 in
17:10 59.0 °F 43.3 °F 30.00 in West 3.2 mph 6.0 mph 56 % 0.00 in
17:15 58.7 °F 43.5 °F 30.00 in WSW 3.0 mph 6.9 mph 57 % 0.00 in
17:20 58.5 °F 43.3 °F 30.00 in West 3.0 mph 5.0 mph 57 % 0.00 in
17:26 58.3 °F 43.6 °F 30.00 in WSW 3.8 mph 5.8 mph 58 % 0.00 in
17:31 58.1 °F 43.4 °F 30.00 in WSW 3.8 mph 6.9 mph 58 % 0.00 in
17:36 58.0 °F 43.3 °F 30.00 in SW 2.9 mph 5.8 mph 58 % 0.00 in
17:41 57.8 °F 43.6 °F 30.00 in SW 2.4 mph 4.6 mph 59 % 0.00 in
17:46 57.6 °F 43.4 °F 30.00 in SW 4.0 mph 5.8 mph 59 % 0.00 in
17:51 57.5 °F 43.3 °F 30.00 in WSW 3.4 mph 4.0 mph 59 % 0.00 in
17:55 54.8 °F 42.9 °F 30.01 in WSW 3.0 mph 5.0 mph 64 % 0.00 in
17:56 57.3 °F 43.1 °F 30.00 in SW 2.7 mph 4.6 mph 59 % 0.00 in
18:01 57.2 °F 43.4 °F 30.00 in WSW 3.1 mph 4.6 mph 60 % 0.00 in
18:06 57.0 °F 43.2 °F 30.00 in WSW 2.3 mph 3.5 mph 60 % 0.00 in
18:11 56.9 °F 43.2 °F 30.00 in WSW 1.0 mph 2.3 mph 60 % 0.00 in
18:16 56.7 °F 43.0 °F 30.00 in WSW 1.0 mph 2.3 mph 60 % 0.00 in
18:21 56.5 °F 43.2 °F 30.00 in Calm   2.3 mph 61 % 0.00 in
18:27 56.3 °F 43.4 °F 30.00 in Calm   1.2 mph 62 % 0.00 in
18:32 56.1 °F 43.3 °F 30.00 in WSW 0.9 mph 2.3 mph 62 % 0.00 in
18:37 55.7 °F 42.9 °F 30.01 in West 1.8 mph 2.3 mph 62 % 0.00 in
18:42 55.4 °F 42.6 °F 30.01 in SW 2.7 mph 4.0 mph 62 % 0.00 in
18:47 55.1 °F 42.7 °F 30.01 in WSW 2.7 mph 4.0 mph 63 % 0.00 in
18:52 54.9 °F 42.9 °F 30.01 in WSW 2.5 mph 3.5 mph 64 % 0.00 in
19:00 54.7 °F 42.8 °F 30.01 in WSW 2.5 mph 3.5 mph 64 % 0.00 in
19:05 54.6 °F 43.1 °F 30.01 in WSW 1.3 mph 2.3 mph 65 % 0.00 in
19:10 54.5 °F 43.0 °F 30.01 in WSW 2.4 mph 4.6 mph 65 % 0.00 in
19:15 54.4 °F 42.9 °F 30.01 in WSW 1.0 mph 3.0 mph 65 % 0.00 in
19:20 54.3 °F 42.8 °F 30.01 in West 1.3 mph 2.3 mph 65 % 0.00 in
19:25 54.2 °F 43.1 °F 30.01 in WSW 1.0 mph 3.0 mph 66 % 0.00 in
19:30 54.0 °F 42.9 °F 30.01 in WSW 1.0 mph 3.0 mph 66 % 0.00 in
19:35 53.8 °F 42.7 °F 30.00 in West 0.3 mph 1.2 mph 66 % 0.00 in
19:40 53.6 °F 42.5 °F 30.01 in Calm     66 % 0.00 in
19:45 53.4 °F 43.1 °F 30.01 in Calm     68 % 0.00 in
19:50 53.2 °F 42.9 °F 30.01 in West 0.4 mph 1.2 mph 68 % 0.00 in
19:55 52.9 °F 42.6 °F 30.01 in Calm   1.0 mph 68 % 0.00 in
20:00 52.4 °F 42.5 °F 30.01 in Calm     69 % 0.00 in
20:05 52.1 °F 42.6 °F 30.01 in West 0.2 mph 1.2 mph 70 % 0.00 in
20:10 51.8 °F 42.3 °F 30.01 in West 0.8 mph 2.0 mph 70 % 0.00 in
20:15 51.4 °F 42.3 °F 30.01 in West 0.7 mph 1.2 mph 71 % 0.00 in
20:20 51.1 °F 42.0 °F 30.01 in West 0.2 mph 1.2 mph 71 % 0.00 in
20:25 50.9 °F 41.8 °F 30.01 in West 1.2 mph 2.3 mph 71 % 0.00 in
20:30 50.8 °F 41.7 °F 30.01 in West 1.0 mph 2.3 mph 71 % 0.00 in
20:36 50.6 °F 41.5 °F 30.01 in Calm   1.2 mph 71 % 0.00 in
20:41 50.5 °F 41.8 °F 30.01 in Calm   1.0 mph 72 % 0.00 in
20:46 50.3 °F 42.0 °F 30.01 in West 0.2 mph 1.2 mph 73 % 0.00 in
20:51 50.1 °F 41.8 °F 30.01 in Calm   1.2 mph 73 % 0.00 in
20:56 49.9 °F 41.9 °F 30.01 in West 0.6 mph 2.3 mph 74 % 0.00 in
21:01 49.6 °F 41.7 °F 30.01 in Calm     74 % 0.00 in
21:06 49.5 °F 41.6 °F 30.01 in Calm     74 % 0.00 in
21:11 49.2 °F 41.3 °F 30.01 in Calm     74 % 0.00 in
21:16 49.0 °F 41.4 °F 30.01 in Calm   1.0 mph 75 % 0.00 in
21:21 48.8 °F 41.2 °F 30.01 in Calm     75 % 0.00 in
21:27 48.6 °F 41.0 °F 30.01 in Calm     75 % 0.00 in
21:32 48.3 °F 41.1 °F 30.01 in Calm     76 % 0.00 in
21:37 48.1 °F 41.2 °F 30.01 in Calm     77 % 0.00 in
21:42 47.9 °F 41.0 °F 30.01 in Calm     77 % 0.00 in
21:47 47.7 °F 40.8 °F 30.02 in West 0.1 mph 1.2 mph 77 % 0.00 in
21:52 47.5 °F 40.6 °F 30.02 in Calm     77 % 0.00 in
21:57 47.3 °F 40.5 °F 30.02 in West 0.2 mph 1.2 mph 77 % 0.00 in
22:02 47.1 °F 40.3 °F 30.02 in West 0.1 mph 2.3 mph 77 % 0.00 in
22:07 47.0 °F 40.5 °F 30.02 in West 0.2 mph 1.2 mph 78 % 0.00 in
22:12 46.7 °F 40.2 °F 30.02 in West 0.4 mph 2.0 mph 78 % 0.00 in
22:17 46.6 °F 40.4 °F 30.01 in West 0.2 mph 1.2 mph 79 % 0.00 in
22:23 46.4 °F 40.2 °F 30.01 in Calm   1.2 mph 79 % 0.00 in
22:28 46.3 °F 40.5 °F 30.02 in West 2.1 mph 3.5 mph 80 % 0.00 in
22:33 46.2 °F 40.7 °F 30.02 in Calm   1.2 mph 81 % 0.00 in
22:38 46.1 °F 40.6 °F 30.02 in West 0.4 mph 2.3 mph 81 % 0.00 in
22:48 45.8 °F 40.3 °F 30.02 in West 1.1 mph 1.2 mph 81 % 0.00 in
22:53 45.7 °F 40.2 °F 30.02 in West 0.3 mph 1.2 mph 81 % 0.00 in
22:58 45.6 °F 40.1 °F 30.02 in Calm     81 % 0.00 in
23:03 45.5 °F 40.3 °F 30.02 in West 0.7 mph 2.3 mph 82 % 0.00 in
23:08 45.3 °F 40.1 °F 30.02 in Calm     82 % 0.00 in
23:14 45.2 °F 40.3 °F 30.01 in Calm     83 % 0.00 in
23:19 45.0 °F 40.1 °F 30.01 in Calm     83 % 0.00 in
23:24 45.0 °F 40.1 °F 30.01 in West 1.0 mph 1.2 mph 83 % 0.00 in
23:34 44.8 °F 40.0 °F 30.01 in West 0.3 mph 1.2 mph 83 % 0.00 in
23:39 44.7 °F 40.2 °F 30.01 in West 0.6 mph 2.3 mph 84 % 0.00 in
23:44 44.6 °F 40.1 °F 30.01 in West 0.1 mph 1.2 mph 84 % 0.00 in
23:49 44.5 °F 40.0 °F 30.01 in Calm     84 % 0.00 in
23:54 44.4 °F 39.9 °F 30.01 in Calm     84 % 0.00 in
23:59 44.2 °F 39.7 °F 30.01 in Calm     84 % 0.00 in
Crab Meadow Weather
Compliments of Weather Underground - 3 mb

Script developed by  Jim McMurry - jmcmurry@mwt.net Adapted for the template by  Wim van der Kuil - Leuven-Template.eu

Astronomy: The rings of Saturn are made of ice and rock.